createdAt,value
2022-12-08T00:00:26.249Z,88.00
2022-12-08T00:03:08.665Z,87.98
2022-12-08T00:05:56.563Z,87.92
2022-12-08T00:08:54.655Z,87.79
2022-12-08T00:11:23.494Z,87.68
2022-12-08T00:13:52.398Z,87.62
2022-12-08T00:16:21.280Z,87.59
2022-12-08T00:18:50.215Z,87.55
2022-12-08T00:21:19.018Z,87.49
2022-12-08T00:23:47.695Z,87.46
2022-12-08T00:26:16.546Z,87.43
2022-12-08T00:28:45.461Z,87.50
2022-12-08T00:31:33.670Z,87.47
2022-12-08T00:34:11.056Z,87.40
2022-12-08T00:37:19.738Z,87.40
2022-12-08T00:40:02.807Z,87.33
2022-12-08T00:42:38.898Z,87.27
2022-12-08T00:45:14.590Z,87.29
2022-12-08T00:48:14.468Z,87.23
2022-12-08T00:50:43.289Z,87.20
2022-12-08T00:53:17.930Z,87.13
2022-12-08T00:56:12.346Z,87.14
2022-12-08T00:58:45.598Z,87.20
2022-12-08T01:01:19.798Z,87.17
2022-12-08T01:03:53.015Z,87.14
2022-12-08T01:06:29.563Z,87.10
2022-12-08T01:09:06.824Z,86.98
2022-12-08T01:11:42.016Z,86.95
2022-12-08T01:14:16.597Z,87.14
2022-12-08T01:16:50.899Z,87.20
2022-12-08T01:19:24.831Z,87.26
2022-12-08T01:22:03.720Z,87.31
2022-12-08T01:24:37.736Z,87.29
2022-12-08T01:27:08.360Z,87.34
2022-12-08T01:29:44.250Z,87.50
2022-12-08T01:32:13.960Z,87.65
2022-12-08T01:34:43.940Z,87.71
2022-12-08T01:37:12.973Z,87.70
2022-12-08T01:39:41.674Z,87.71
2022-12-08T01:42:22.734Z,87.72
2022-12-08T01:45:03.884Z,87.80
2022-12-08T01:47:43.942Z,87.80
2022-12-08T01:50:17.694Z,87.80
2022-12-08T01:53:05.231Z,87.76
2022-12-08T01:55:47.474Z,87.75
2022-12-08T01:58:23.593Z,87.73
2022-12-08T02:00:53.020Z,87.76
2022-12-08T02:03:35.794Z,87.71
2022-12-08T02:06:10.422Z,87.61
2022-12-08T02:08:46.034Z,87.58
2022-12-08T02:11:22.011Z,87.50
2022-12-08T02:13:57.810Z,87.50
2022-12-08T02:17:01.791Z,87.53
2022-12-08T02:20:15.937Z,87.43
2022-12-08T02:23:07.564Z,87.27
2022-12-08T02:26:08.317Z,87.20
2022-12-08T02:29:14.684Z,87.11
2022-12-08T02:32:08.991Z,87.01
2022-12-08T02:35:14.762Z,86.80
2022-12-08T02:38:08.994Z,86.72
2022-12-08T02:41:07.323Z,86.69
2022-12-08T02:43:51.545Z,86.74
2022-12-08T02:46:37.467Z,86.76
2022-12-08T02:49:11.178Z,86.82
2022-12-08T02:51:39.744Z,86.79
2022-12-08T02:54:15.929Z,86.71
2022-12-08T02:57:30.828Z,86.78
2022-12-08T03:00:23.566Z,86.79
2022-12-08T03:03:42.929Z,86.79
2022-12-08T03:07:05.285Z,86.82
2022-12-08T03:09:43.065Z,86.90
2022-12-08T03:12:52.846Z,86.90
2022-12-08T03:15:23.396Z,86.95
2022-12-08T03:17:58.468Z,86.99
2022-12-08T03:20:31.424Z,86.99
2022-12-08T03:23:05.332Z,86.98
2022-12-08T03:25:44.003Z,86.83
2022-12-08T03:28:13.229Z,86.88
2022-12-08T03:30:46.540Z,86.92
2022-12-08T03:33:30.725Z,86.90
2022-12-08T03:36:02.884Z,86.80
2022-12-08T03:38:41.031Z,86.82
2022-12-08T03:41:20.224Z,86.89
2022-12-08T03:44:01.212Z,86.87
2022-12-08T03:48:59.132Z,86.70
2022-12-08T03:51:28.294Z,86.77
2022-12-08T03:53:57.133Z,86.77
2022-12-08T03:56:36.688Z,86.83
2022-12-08T03:59:07.712Z,86.90
2022-12-08T04:01:37.017Z,86.98
2022-12-08T04:04:05.902Z,87.00
2022-12-08T04:06:34.696Z,87.04
2022-12-08T04:09:03.386Z,86.98
2022-12-08T04:11:32.022Z,86.88
2022-12-08T04:14:00.709Z,86.86
2022-12-08T04:16:29.474Z,86.84
2022-12-08T04:18:58.298Z,86.86
2022-12-08T04:21:27.118Z,86.90
2022-12-08T04:24:00.834Z,86.87
2022-12-08T04:26:30.133Z,86.86
2022-12-08T04:28:58.887Z,86.84
2022-12-08T04:31:27.711Z,86.82
2022-12-08T04:33:56.458Z,86.70
2022-12-08T04:36:25.301Z,86.60
2022-12-08T04:38:54.400Z,86.61
2022-12-08T04:41:23.112Z,86.61
2022-12-08T04:43:51.890Z,86.65
2022-12-08T04:46:20.779Z,86.67
2022-12-08T04:48:49.671Z,86.78
2022-12-08T04:51:20.704Z,86.76
2022-12-08T04:53:49.528Z,86.79
2022-12-08T04:56:20.114Z,86.77
2022-12-08T04:58:49.060Z,86.80
2022-12-08T05:01:18.166Z,86.86
2022-12-08T05:03:46.895Z,86.89
2022-12-08T05:06:16.031Z,86.91
2022-12-08T05:08:44.957Z,87.00
2022-12-08T05:11:14.527Z,87.07
2022-12-08T05:13:43.397Z,87.08
2022-12-08T05:16:16.040Z,87.10
2022-12-08T05:18:44.968Z,87.09
2022-12-08T05:21:13.633Z,87.10
2022-12-08T05:23:42.355Z,87.09
2022-12-08T05:26:11.093Z,87.11
2022-12-08T05:28:41.932Z,87.20
2022-12-08T05:31:16.630Z,87.24
2022-12-08T05:33:46.597Z,87.30
2022-12-08T05:36:16.885Z,87.30
2022-12-08T05:38:47.394Z,87.30
2022-12-08T05:41:20.468Z,87.27
2022-12-08T05:43:49.797Z,87.30
2022-12-08T05:46:18.678Z,87.30
2022-12-08T05:48:47.490Z,87.37
2022-12-08T05:51:24.437Z,87.40
2022-12-08T05:53:53.971Z,87.50
2022-12-08T05:56:24.095Z,87.58
2022-12-08T05:58:52.830Z,87.63
2022-12-08T06:01:27.852Z,87.65
2022-12-08T06:03:59.691Z,87.70
2022-12-08T06:06:29.732Z,87.70
2022-12-08T06:08:58.388Z,87.66
2022-12-08T06:11:31.371Z,87.70
2022-12-08T06:14:00.708Z,87.71
2022-12-08T06:16:30.184Z,87.79
2022-12-08T06:18:59.008Z,87.89
2022-12-08T06:21:27.767Z,87.96
2022-12-08T06:23:56.683Z,88.02
2022-12-08T06:26:25.814Z,88.06
2022-12-08T06:28:54.898Z,88.05
2022-12-08T06:31:26.582Z,88.00
2022-12-08T06:33:55.774Z,87.94
2022-12-08T06:36:27.409Z,87.90
2022-12-08T06:38:57.590Z,87.90
2022-12-08T06:41:26.651Z,87.90
2022-12-08T06:43:59.174Z,87.90
2022-12-08T06:46:27.973Z,87.96
2022-12-08T06:48:56.866Z,88.03
2022-12-08T06:51:25.892Z,88.09
2022-12-08T06:53:54.613Z,88.10
2022-12-08T06:56:28.244Z,88.10
2022-12-08T06:58:57.190Z,88.05
2022-12-08T07:01:26.021Z,88.00
2022-12-08T07:03:54.884Z,87.97
2022-12-08T07:06:25.577Z,88.02
2022-12-08T07:08:54.157Z,88.13
2022-12-08T07:11:22.978Z,88.20
2022-12-08T07:13:51.796Z,88.27
2022-12-08T07:16:20.569Z,88.32
2022-12-08T07:18:50.551Z,88.30
2022-12-08T07:21:19.518Z,88.35
2022-12-08T07:23:56.056Z,88.38
2022-12-08T07:26:27.282Z,88.30
2022-12-08T07:28:56.145Z,88.28
2022-12-08T07:31:26.487Z,88.20
2022-12-08T07:33:57.353Z,88.20
2022-12-08T07:36:26.514Z,88.16
2022-12-08T07:38:55.367Z,88.10
2022-12-08T07:41:26.747Z,88.10
2022-12-08T07:43:57.134Z,88.08
2022-12-08T07:46:27.018Z,88.09
2022-12-08T07:48:55.896Z,88.07
2022-12-08T07:51:25.584Z,87.98
2022-12-08T07:53:55.257Z,87.90
2022-12-08T07:56:24.896Z,87.85
2022-12-08T07:58:53.711Z,87.80
2022-12-08T08:01:23.809Z,87.75
2022-12-08T08:03:53.711Z,87.66
2022-12-08T08:06:23.050Z,87.60
2022-12-08T08:08:51.771Z,87.50
2022-12-08T08:11:21.807Z,87.37
2022-12-08T08:13:52.253Z,87.20
2022-12-08T08:16:21.592Z,87.13
2022-12-08T08:18:52.371Z,87.04
2022-12-08T08:21:45.003Z,87.08
2022-12-08T08:24:11.454Z,86.99
2022-12-08T08:26:40.270Z,86.86
2022-12-08T08:29:09.070Z,86.70
2022-12-08T08:31:37.709Z,86.51
2022-12-08T08:34:06.744Z,86.45
2022-12-08T08:36:36.351Z,86.25
2022-12-08T08:39:05.256Z,85.98
2022-12-08T08:41:35.692Z,85.80
2022-12-08T08:44:05.300Z,85.82
2022-12-08T08:46:34.260Z,85.67
2022-12-08T08:49:03.131Z,85.63
2022-12-08T08:51:31.831Z,85.29
2022-12-08T08:54:00.551Z,85.10
2022-12-08T08:56:29.251Z,85.14
2022-12-08T08:58:58.110Z,85.05
2022-12-08T09:01:28.953Z,84.74
2022-12-08T09:03:58.323Z,84.63
2022-12-08T09:06:28.752Z,84.40
2022-12-08T09:08:57.771Z,84.00
2022-12-08T09:11:26.595Z,83.80
2022-12-08T09:13:56.191Z,83.35
2022-12-08T09:16:25.228Z,83.33
2022-12-08T09:18:54.697Z,83.38
2022-12-08T09:21:27.077Z,83.20
2022-12-08T09:23:59.062Z,82.84
2022-12-08T09:26:30.702Z,82.71
2022-12-08T09:29:00.383Z,82.22
2022-12-08T09:31:29.176Z,81.28
2022-12-08T09:33:58.046Z,80.60
2022-12-08T09:36:27.069Z,80.29
2022-12-08T09:38:56.301Z,80.60
2022-12-08T09:41:40.660Z,80.66
2022-12-08T09:45:00.265Z,80.63
2022-12-08T09:47:38.146Z,80.60
2022-12-08T09:50:18.552Z,80.61
2022-12-08T09:53:17.385Z,81.15
2022-12-08T09:56:00.540Z,81.31
2022-12-08T09:59:24.221Z,80.74
2022-12-08T10:01:53.132Z,80.93
2022-12-08T10:04:32.717Z,80.62
2022-12-08T10:07:23.100Z,80.69
2022-12-08T10:10:26.348Z,80.44
2022-12-08T10:13:08.776Z,80.38
2022-12-08T10:15:50.197Z,80.00
2022-12-08T10:18:30.798Z,79.51
2022-12-08T10:21:16.990Z,79.36
2022-12-08T10:23:51.748Z,79.40
2022-12-08T10:26:22.827Z,78.62
2022-12-08T10:28:52.807Z,78.11
2022-12-08T10:31:25.533Z,78.18
2022-12-08T10:34:10.781Z,78.73
2022-12-08T10:36:58.619Z,78.88
2022-12-08T10:39:47.183Z,79.03
2022-12-08T10:42:15.988Z,79.17
2022-12-08T10:45:20.642Z,79.26
2022-12-08T10:48:26.043Z,79.28
2022-12-08T10:50:58.302Z,79.16
2022-12-08T10:53:29.728Z,79.15
2022-12-08T10:56:04.187Z,79.42
2022-12-08T10:58:36.126Z,79.07
2022-12-08T11:01:22.804Z,79.35
2022-12-08T11:04:01.156Z,79.32
2022-12-08T11:06:29.748Z,79.02
2022-12-08T11:09:07.939Z,79.05
2022-12-08T11:11:58.777Z,78.66
2022-12-08T11:14:32.589Z,78.79
2022-12-08T11:17:14.985Z,78.51
2022-12-08T11:20:01.529Z,78.45
2022-12-08T11:22:40.063Z,78.45
2022-12-08T11:25:08.745Z,77.43
2022-12-08T11:28:00.224Z,77.38
2022-12-08T11:30:37.373Z,77.03
2022-12-08T11:33:22.670Z,76.80
2022-12-08T11:36:15.445Z,77.28
2022-12-08T11:38:49.642Z,76.97
2022-12-08T11:41:29.450Z,76.57
2022-12-08T11:44:16.007Z,76.93
2022-12-08T11:46:54.402Z,76.73
2022-12-08T11:49:35.171Z,76.26
2022-12-08T11:52:12.461Z,76.53
2022-12-08T11:54:52.301Z,76.62
2022-12-08T11:57:24.742Z,76.26
2022-12-08T11:59:57.862Z,76.27
2022-12-08T12:02:36.201Z,75.66
2022-12-08T12:06:05.770Z,75.13
2022-12-08T12:09:01.183Z,74.67
2022-12-08T12:12:04.764Z,74.76
2022-12-08T12:14:53.304Z,74.74
2022-12-08T12:18:20.822Z,75.47
2022-12-08T12:21:10.762Z,75.55
2022-12-08T12:23:44.740Z,76.03
2022-12-08T12:26:59.021Z,76.29
2022-12-08T12:29:33.962Z,76.53
2022-12-08T12:32:07.842Z,76.46
2022-12-08T12:34:44.863Z,76.11
2022-12-08T12:37:36.924Z,76.01
2022-12-08T12:40:29.303Z,76.28
2022-12-08T12:42:57.861Z,76.56
2022-12-08T12:45:32.816Z,76.91
2022-12-08T12:48:01.639Z,77.23
2022-12-08T12:50:33.617Z,77.40
2022-12-08T12:53:17.682Z,77.28
2022-12-08T12:55:46.516Z,77.36
2022-12-08T12:58:37.705Z,77.36
2022-12-08T13:01:09.134Z,77.39
2022-12-08T13:04:07.783Z,77.31
2022-12-08T13:06:46.003Z,77.30
2022-12-08T13:09:35.488Z,77.10
2022-12-08T13:12:24.543Z,76.88
2022-12-08T13:15:03.066Z,76.97
2022-12-08T13:17:38.672Z,77.03
2022-12-08T13:20:23.356Z,77.00
2022-12-08T13:22:54.796Z,77.40
2022-12-08T13:25:47.767Z,77.60
2022-12-08T13:28:16.328Z,77.83
2022-12-08T13:30:57.954Z,78.09
2022-12-08T13:33:30.416Z,78.30
2022-12-08T13:36:13.775Z,78.52
2022-12-08T13:38:47.497Z,78.39
2022-12-08T13:41:24.787Z,78.42
2022-12-08T13:44:50.796Z,78.51
2022-12-08T13:47:32.200Z,78.55
2022-12-08T13:58:36.675Z,79.05
2022-12-08T14:01:05.847Z,79.32
2022-12-08T14:06:58.960Z,79.67
2022-12-08T14:09:38.421Z,79.80
2022-12-08T14:12:28.697Z,79.83
2022-12-08T14:15:06.549Z,79.97
2022-12-08T14:17:35.459Z,80.02
2022-12-08T14:20:13.414Z,80.11
2022-12-08T14:22:42.478Z,80.29
2022-12-08T14:25:17.037Z,80.49
2022-12-08T14:27:48.031Z,80.66
2022-12-08T14:30:26.487Z,80.90
2022-12-08T14:32:59.153Z,81.13
2022-12-08T14:35:37.021Z,81.20
2022-12-08T14:38:16.679Z,81.28
2022-12-08T14:41:05.937Z,81.29
2022-12-08T14:43:35.734Z,81.22
2022-12-08T14:46:20.641Z,81.26
2022-12-08T14:48:49.387Z,81.25
2022-12-08T14:51:23.837Z,81.21
2022-12-08T14:54:03.498Z,81.23
2022-12-08T14:56:39.530Z,81.28
2022-12-08T14:59:26.563Z,81.22
2022-12-08T15:02:25.897Z,81.40
2022-12-08T15:05:13.041Z,81.37
2022-12-08T15:07:56.083Z,81.56
2022-12-08T15:10:32.296Z,82.04
2022-12-08T15:13:22.306Z,82.30
2022-12-08T15:15:56.984Z,82.49
2022-12-08T15:18:39.776Z,82.77
2022-12-08T15:21:13.222Z,82.93
2022-12-08T15:23:50.250Z,83.24
2022-12-08T15:26:28.934Z,83.50
2022-12-08T15:29:17.404Z,83.73
2022-12-08T15:31:49.660Z,84.08
2022-12-08T15:34:21.853Z,84.13
2022-12-08T15:36:53.841Z,84.11
2022-12-08T15:39:38.779Z,84.10
2022-12-08T15:42:13.598Z,84.07
2022-12-08T15:44:43.595Z,84.10
2022-12-08T15:47:25.953Z,84.29
2022-12-08T15:49:55.033Z,84.65
2022-12-08T15:52:25.374Z,84.85
2022-12-08T15:54:55.335Z,85.14
2022-12-08T15:58:04.471Z,85.10
2022-12-08T16:05:17.950Z,85.04
2022-12-08T16:09:32.589Z,84.72
2022-12-08T16:12:20.390Z,84.64
2022-12-08T16:17:40.561Z,84.50
2022-12-08T16:20:18.366Z,84.61
2022-12-08T16:23:07.588Z,84.55
2022-12-08T16:26:00.078Z,84.13
2022-12-08T16:28:52.858Z,83.90
2022-12-08T16:31:21.392Z,84.00
2022-12-08T16:33:52.661Z,84.34
2022-12-08T16:36:21.288Z,83.89
2022-12-08T16:38:49.902Z,83.67
2022-12-08T16:41:37.276Z,83.55
2022-12-08T16:44:06.922Z,83.56
2022-12-08T16:46:36.363Z,83.38
2022-12-08T16:49:08.081Z,83.36
2022-12-08T16:51:36.743Z,83.34
2022-12-08T16:54:05.433Z,83.32
2022-12-08T16:56:34.121Z,83.28
2022-12-08T16:59:03.040Z,83.32
2022-12-08T17:01:32.014Z,83.50
2022-12-08T17:04:29.674Z,83.66
2022-12-08T17:06:53.164Z,83.90
2022-12-08T17:09:21.979Z,84.22
2022-12-08T17:11:50.779Z,84.51
2022-12-08T17:14:19.518Z,84.69
2022-12-08T17:16:48.211Z,84.59
2022-12-08T17:19:17.441Z,84.60
2022-12-08T17:21:46.259Z,84.59
2022-12-08T17:24:20.224Z,84.56
2022-12-08T17:26:51.958Z,84.50
2022-12-08T17:29:20.618Z,84.45
2022-12-08T17:31:49.466Z,84.29
2022-12-08T17:34:18.118Z,84.12
2022-12-08T17:36:46.854Z,84.01
2022-12-08T17:39:18.847Z,83.94
2022-12-08T17:41:48.313Z,83.90
2022-12-08T17:44:19.992Z,83.91
2022-12-08T17:46:52.983Z,84.00
2022-12-08T17:49:25.897Z,84.02
2022-12-08T17:51:58.725Z,84.08
2022-12-08T17:54:28.696Z,84.05
2022-12-08T17:56:59.043Z,83.95
2022-12-08T17:59:29.581Z,83.85
2022-12-08T18:01:59.577Z,83.80
2022-12-08T18:04:29.241Z,83.88
2022-12-08T18:07:00.587Z,83.89
2022-12-08T18:09:31.691Z,83.84
2022-12-08T18:12:00.521Z,83.74
2022-12-08T18:14:29.149Z,83.66
2022-12-08T18:17:00.938Z,83.55
2022-12-08T18:19:29.978Z,83.41
2022-12-08T18:21:58.818Z,83.34
2022-12-08T18:24:28.638Z,83.14
2022-12-08T18:26:58.122Z,83.02
2022-12-08T18:29:26.866Z,83.01
2022-12-08T18:31:56.380Z,83.10
2022-12-08T18:34:25.463Z,83.08
2022-12-08T18:36:54.335Z,82.94
2022-12-08T18:39:27.780Z,82.90
2022-12-08T18:41:59.171Z,82.76
2022-12-08T18:44:28.117Z,82.66
2022-12-08T18:46:56.722Z,82.62
2022-12-08T18:49:26.791Z,82.57
2022-12-08T18:51:55.619Z,82.50
2022-12-08T18:54:37.220Z,82.53
2022-12-08T18:57:13.399Z,82.50
2022-12-08T18:59:42.320Z,82.56
2022-12-08T19:02:14.980Z,82.70
2022-12-08T19:04:44.372Z,82.70
2022-12-08T19:07:14.982Z,82.73
2022-12-08T19:09:44.599Z,82.62
2022-12-08T19:12:13.628Z,82.57
2022-12-08T19:14:42.727Z,82.50
2022-12-08T19:17:11.479Z,82.54
2022-12-08T19:19:40.178Z,82.60
2022-12-08T19:22:08.987Z,82.61
2022-12-08T19:24:37.765Z,82.60
2022-12-08T19:27:06.874Z,82.57
2022-12-08T19:29:35.759Z,82.52
2022-12-08T19:32:05.439Z,82.52
2022-12-08T19:34:34.253Z,82.60
2022-12-08T19:37:02.931Z,82.66
2022-12-08T19:39:50.519Z,82.72
2022-12-08T19:42:39.947Z,82.81
2022-12-08T19:45:15.564Z,82.96
2022-12-08T19:47:44.752Z,83.10
2022-12-08T19:50:34.600Z,83.10
2022-12-08T19:53:08.482Z,83.14
2022-12-08T19:55:38.350Z,83.10
2022-12-08T19:58:08.621Z,83.12
2022-12-08T20:00:39.426Z,83.15
2022-12-08T20:03:08.707Z,83.10
2022-12-08T20:05:40.187Z,83.15
2022-12-08T20:08:09.050Z,83.24
2022-12-08T20:10:41.551Z,83.29
2022-12-08T20:13:30.203Z,83.30
2022-12-08T20:15:59.567Z,83.28
2022-12-08T20:18:28.976Z,83.23
2022-12-08T20:20:57.811Z,83.18
2022-12-08T20:23:26.530Z,83.21
2022-12-08T20:25:55.191Z,83.30
2022-12-08T20:28:24.295Z,83.31
2022-12-08T20:30:53.137Z,83.30
2022-12-08T20:33:22.006Z,83.38
2022-12-08T20:36:04.150Z,83.35
2022-12-08T20:38:32.985Z,83.33
2022-12-08T20:41:01.554Z,83.37
2022-12-08T20:43:30.404Z,83.27
2022-12-08T20:45:59.317Z,83.27
2022-12-08T20:48:28.156Z,83.21
2022-12-08T20:50:56.995Z,83.16
2022-12-08T20:53:25.690Z,83.12
2022-12-08T20:55:55.124Z,83.20
2022-12-08T20:58:31.648Z,83.20
2022-12-08T21:01:00.871Z,83.11
2022-12-08T21:03:29.839Z,83.10
2022-12-08T21:05:59.061Z,83.04
2022-12-08T21:08:28.086Z,83.00
2022-12-08T21:10:57.949Z,82.99
2022-12-08T21:13:26.999Z,82.94
2022-12-08T21:15:56.000Z,83.07
2022-12-08T21:18:25.441Z,83.13
2022-12-08T21:21:05.319Z,83.22
2022-12-08T21:23:34.788Z,83.29
2022-12-08T21:26:09.615Z,83.17
2022-12-08T21:28:38.514Z,82.95
2022-12-08T21:31:09.805Z,82.78
2022-12-08T21:33:38.860Z,82.84
2022-12-08T21:36:13.389Z,82.88
2022-12-08T21:38:43.607Z,82.92
2022-12-08T21:41:37.426Z,83.00
2022-12-08T21:44:09.556Z,83.05
2022-12-08T21:46:38.984Z,83.10
2022-12-08T21:49:08.333Z,83.10
2022-12-08T21:51:41.765Z,83.10
2022-12-08T21:54:18.302Z,83.07
2022-12-08T21:56:49.711Z,83.00
2022-12-08T21:59:19.957Z,82.99
2022-12-08T22:01:49.309Z,83.00
2022-12-08T22:04:21.920Z,83.02
2022-12-08T22:06:50.811Z,83.04
2022-12-08T22:09:19.758Z,83.04
2022-12-08T22:11:48.677Z,83.25
2022-12-08T22:14:17.532Z,83.40
2022-12-08T22:16:46.475Z,83.45
2022-12-08T22:19:15.251Z,83.40
2022-12-08T22:21:44.704Z,83.38
2022-12-08T22:24:13.718Z,83.36
2022-12-08T22:26:42.472Z,83.33
2022-12-08T22:29:11.419Z,83.43
2022-12-08T22:31:40.546Z,83.39
2022-12-08T22:34:09.932Z,83.34
2022-12-08T22:36:38.795Z,83.50
2022-12-08T22:39:07.537Z,83.57
2022-12-08T22:41:36.642Z,83.49
2022-12-08T22:44:09.511Z,83.40
2022-12-08T22:46:38.611Z,83.31
2022-12-08T22:49:07.665Z,83.28
2022-12-08T22:51:37.700Z,83.13
2022-12-08T22:54:06.495Z,83.15
2022-12-08T22:56:35.212Z,83.11
2022-12-08T22:59:08.939Z,83.14
2022-12-08T23:01:38.281Z,83.15
2022-12-08T23:04:11.342Z,83.10
2022-12-08T23:06:43.103Z,83.11
2022-12-08T23:09:12.183Z,83.04
2022-12-08T23:11:41.224Z,83.09
2022-12-08T23:14:10.004Z,82.89
2022-12-08T23:16:38.957Z,82.86
2022-12-08T23:19:08.278Z,82.97
2022-12-08T23:21:37.321Z,83.08
2022-12-08T23:24:06.406Z,83.19
2022-12-08T23:26:36.043Z,83.22
2022-12-08T23:30:19.764Z,83.34
2022-12-08T23:32:55.724Z,83.43
2022-12-08T23:35:32.144Z,83.56
2022-12-08T23:38:05.520Z,83.60
2022-12-08T23:40:34.695Z,83.66
2022-12-08T23:43:06.658Z,83.60
2022-12-08T23:45:35.911Z,83.60
2022-12-08T23:48:05.277Z,83.65
2022-12-08T23:50:34.437Z,83.76
2022-12-08T23:53:03.367Z,83.83
2022-12-08T23:58:49.277Z,83.72
